createdAt,value
2017-08-26T00:00:15.028Z,63.37
2017-08-26T00:02:47.456Z,64.11
2017-08-26T00:05:13.859Z,64.10
2017-08-26T00:07:40.410Z,63.99
2017-08-26T00:10:06.821Z,63.56
2017-08-26T00:12:33.205Z,62.91
2017-08-26T00:14:59.589Z,62.87
2017-08-26T00:17:25.961Z,63.41
2017-08-26T00:19:52.340Z,63.73
2017-08-26T00:22:18.697Z,63.30
2017-08-26T00:24:45.090Z,63.10
2017-08-26T00:27:11.441Z,63.18
2017-08-26T00:29:37.799Z,63.33
2017-08-26T00:32:04.181Z,63.11
2017-08-26T00:34:30.592Z,62.91
2017-08-26T00:36:57.136Z,62.82
2017-08-26T00:39:23.710Z,63.11
2017-08-26T00:41:50.096Z,63.27
2017-08-26T00:44:16.489Z,63.45
2017-08-26T00:46:42.849Z,63.82
2017-08-26T00:49:09.222Z,64.24
2017-08-26T00:51:35.734Z,64.34
2017-08-26T00:54:02.133Z,63.68
2017-08-26T00:56:28.671Z,64.66
2017-08-26T00:58:55.138Z,64.73
2017-08-26T01:01:21.516Z,65.10
2017-08-26T01:03:47.886Z,64.63
2017-08-26T01:06:14.304Z,64.18
2017-08-26T01:08:40.871Z,64.66
2017-08-26T01:11:07.318Z,64.64
2017-08-26T01:13:33.732Z,65.05
2017-08-26T01:16:00.124Z,64.75
2017-08-26T01:18:26.525Z,64.42
2017-08-26T01:20:52.930Z,64.81
2017-08-26T01:23:19.311Z,65.72
2017-08-26T01:25:45.689Z,65.23
2017-08-26T01:28:12.129Z,65.60
2017-08-26T01:30:39.120Z,65.45
2017-08-26T01:33:06.259Z,65.45
2017-08-26T01:35:32.738Z,65.40
2017-08-26T01:37:59.106Z,65.79
2017-08-26T01:40:25.469Z,65.34
2017-08-26T01:42:51.857Z,65.67
2017-08-26T01:45:18.243Z,65.38
2017-08-26T01:47:44.776Z,65.73
2017-08-26T01:50:11.214Z,66.15
2017-08-26T01:52:37.596Z,65.92
2017-08-26T01:55:03.974Z,65.52
2017-08-26T01:57:30.344Z,65.78
2017-08-26T01:59:56.746Z,66.55
2017-08-26T02:02:23.137Z,67.05
2017-08-26T02:04:50.325Z,66.39
2017-08-26T02:07:16.959Z,66.00
2017-08-26T02:09:43.365Z,66.46
2017-08-26T02:12:09.723Z,65.90
2017-08-26T02:14:36.137Z,66.09
2017-08-26T02:17:02.508Z,67.00
2017-08-26T02:19:28.900Z,66.58
2017-08-26T02:21:56.213Z,66.29
2017-08-26T02:24:22.595Z,65.65
2017-08-26T02:26:48.978Z,68.17
2017-08-26T02:29:15.455Z,67.37
2017-08-26T02:31:41.822Z,67.71
2017-08-26T02:34:08.210Z,66.49
2017-08-26T02:36:34.657Z,66.09
2017-08-26T02:39:01.029Z,67.36
2017-08-26T02:41:27.436Z,67.72
2017-08-26T02:43:53.850Z,67.23
2017-08-26T02:46:20.230Z,67.77
2017-08-26T02:48:46.593Z,67.95
2017-08-26T02:51:13.002Z,67.39
2017-08-26T02:53:39.394Z,67.50
2017-08-26T02:56:05.761Z,67.71
2017-08-26T02:58:34.296Z,67.59
2017-08-26T03:01:00.682Z,67.64
2017-08-26T03:03:27.049Z,67.49
2017-08-26T03:05:53.439Z,67.55
2017-08-26T03:08:19.804Z,67.46
2017-08-26T03:10:46.203Z,67.65
2017-08-26T03:13:12.612Z,67.65
2017-08-26T03:15:39.010Z,68.47
2017-08-26T03:18:05.413Z,69.56
2017-08-26T03:20:31.819Z,69.10
2017-08-26T03:22:58.216Z,68.51
2017-08-26T03:25:24.598Z,68.24
2017-08-26T03:27:51.004Z,67.70
2017-08-26T03:30:17.388Z,66.79
2017-08-26T03:32:43.773Z,68.09
2017-08-26T03:35:11.093Z,67.88
2017-08-26T03:37:37.473Z,67.65
2017-08-26T03:40:03.856Z,67.45
2017-08-26T03:42:30.233Z,67.62
2017-08-26T03:44:56.633Z,67.23
2017-08-26T03:47:23.418Z,67.57
2017-08-26T03:49:49.812Z,66.82
2017-08-26T03:52:16.204Z,67.28
2017-08-26T03:54:42.602Z,67.59
2017-08-26T03:57:08.992Z,67.74
2017-08-26T03:59:35.428Z,67.81
2017-08-26T04:02:01.835Z,68.81
2017-08-26T04:04:28.251Z,68.77
2017-08-26T04:06:54.682Z,68.67
2017-08-26T04:09:21.108Z,68.77
2017-08-26T04:11:47.509Z,68.84
2017-08-26T04:14:13.886Z,68.78
2017-08-26T04:16:40.264Z,68.70
2017-08-26T04:19:06.654Z,68.74
2017-08-26T04:21:33.038Z,68.36
2017-08-26T04:23:59.411Z,69.37
2017-08-26T04:26:25.797Z,69.40
2017-08-26T04:28:52.196Z,69.04
2017-08-26T04:31:18.602Z,69.10
2017-08-26T04:33:45.028Z,68.84
2017-08-26T04:36:11.457Z,68.08
2017-08-26T04:38:37.874Z,68.22
2017-08-26T04:41:04.267Z,68.39
2017-08-26T04:43:30.659Z,68.63
2017-08-26T04:45:57.056Z,68.70
2017-08-26T04:48:23.438Z,68.63
2017-08-26T04:50:49.887Z,69.33
2017-08-26T04:53:16.315Z,68.81
2017-08-26T04:55:42.729Z,68.36
2017-08-26T04:58:09.128Z,68.68
2017-08-26T05:00:35.521Z,68.25
2017-08-26T05:03:01.891Z,68.72
2017-08-26T05:05:28.292Z,69.14
2017-08-26T05:07:54.679Z,68.92
2017-08-26T05:10:21.078Z,68.65
2017-08-26T05:12:47.438Z,68.77
2017-08-26T05:15:13.822Z,69.27
2017-08-26T05:17:40.208Z,69.23
2017-08-26T05:20:06.616Z,68.71
2017-08-26T05:22:33.027Z,68.65
2017-08-26T05:24:59.487Z,69.40
2017-08-26T05:27:25.878Z,69.23
2017-08-26T05:29:52.257Z,70.00
2017-08-26T05:32:18.682Z,68.97
2017-08-26T05:34:45.065Z,69.10
2017-08-26T05:37:11.476Z,69.25
2017-08-26T05:39:37.867Z,69.37
2017-08-26T05:42:04.243Z,68.92
2017-08-26T05:44:30.643Z,70.10
2017-08-26T05:46:57.073Z,70.15
2017-08-26T05:49:23.477Z,70.39
2017-08-26T05:51:49.885Z,70.26
2017-08-26T05:54:16.314Z,70.69
2017-08-26T05:56:42.684Z,71.86
2017-08-26T05:59:09.043Z,71.76
2017-08-26T06:01:35.475Z,71.67
2017-08-26T06:04:01.862Z,71.84
2017-08-26T06:06:28.230Z,71.10
2017-08-26T06:08:54.638Z,70.67
2017-08-26T06:11:21.022Z,70.47
2017-08-26T06:13:47.451Z,70.32
2017-08-26T06:16:13.853Z,70.04
2017-08-26T06:18:40.253Z,70.22
2017-08-26T06:21:06.655Z,70.63
2017-08-26T06:23:33.047Z,70.11
2017-08-26T06:25:59.438Z,70.48
2017-08-26T06:28:25.844Z,70.59
2017-08-26T06:30:52.230Z,70.44
2017-08-26T06:33:18.591Z,70.51
2017-08-26T06:35:44.947Z,70.37
2017-08-26T06:38:11.347Z,70.36
2017-08-26T06:40:37.768Z,69.88
2017-08-26T06:43:04.146Z,70.40
2017-08-26T06:45:30.529Z,69.54
2017-08-26T06:47:56.937Z,69.88
2017-08-26T06:50:23.291Z,71.48
2017-08-26T06:52:49.682Z,71.51
2017-08-26T06:55:16.064Z,71.27
2017-08-26T06:57:42.502Z,71.23
2017-08-26T07:00:08.925Z,71.58
2017-08-26T07:02:35.340Z,72.86
2017-08-26T07:05:01.738Z,71.69
2017-08-26T07:07:28.128Z,71.20
2017-08-26T07:09:54.546Z,71.37
2017-08-26T07:12:20.924Z,71.14
2017-08-26T07:14:47.305Z,71.26
2017-08-26T07:17:13.701Z,72.25
2017-08-26T07:19:40.101Z,71.65
2017-08-26T07:22:06.506Z,71.98
2017-08-26T07:24:32.874Z,72.05
2017-08-26T07:26:59.238Z,73.04
2017-08-26T07:29:25.639Z,73.50
2017-08-26T07:31:52.034Z,72.92
2017-08-26T07:34:18.435Z,72.15
2017-08-26T07:36:45.283Z,71.85
2017-08-26T07:39:11.678Z,71.82
2017-08-26T07:41:38.066Z,72.84
2017-08-26T07:44:04.691Z,72.84
2017-08-26T07:46:31.091Z,72.17
2017-08-26T07:48:57.484Z,71.98
2017-08-26T07:51:23.855Z,71.88
2017-08-26T07:53:50.227Z,72.46
2017-08-26T07:56:16.627Z,72.80
2017-08-26T07:58:43.005Z,72.00
2017-08-26T08:01:09.443Z,72.55
2017-08-26T08:03:35.849Z,71.47
2017-08-26T08:06:02.264Z,70.85
2017-08-26T08:08:28.691Z,70.17
2017-08-26T08:10:55.068Z,70.23
2017-08-26T08:13:21.475Z,71.11
2017-08-26T08:15:47.869Z,71.49
2017-08-26T08:18:14.316Z,70.28
2017-08-26T08:20:40.775Z,69.39
2017-08-26T08:23:07.205Z,69.49
2017-08-26T08:25:33.578Z,68.86
2017-08-26T08:27:59.963Z,68.89
2017-08-26T08:30:26.345Z,69.92
2017-08-26T08:32:52.773Z,69.54
2017-08-26T08:35:19.150Z,70.03
2017-08-26T08:37:45.624Z,69.72
2017-08-26T08:40:12.083Z,70.89
2017-08-26T08:42:38.479Z,69.48
2017-08-26T08:45:04.883Z,69.32
2017-08-26T08:47:31.268Z,69.35
2017-08-26T08:49:57.682Z,69.63
2017-08-26T08:52:24.089Z,69.86
2017-08-26T08:54:51.577Z,68.33
2017-08-26T08:57:18.003Z,67.86
2017-08-26T08:59:44.421Z,69.31
2017-08-26T09:02:10.798Z,68.79
2017-08-26T09:04:37.185Z,69.78
2017-08-26T09:07:03.585Z,69.83
2017-08-26T09:09:29.985Z,68.80
2017-08-26T09:11:56.413Z,69.14
2017-08-26T09:14:22.869Z,68.97
2017-08-26T09:16:49.274Z,68.78
2017-08-26T09:19:15.689Z,69.56
2017-08-26T09:21:42.086Z,70.37
2017-08-26T09:24:08.457Z,69.82
2017-08-26T09:26:34.844Z,70.65
2017-08-26T09:29:01.223Z,70.63
2017-08-26T09:31:27.604Z,70.74
2017-08-26T09:33:54.000Z,69.96
2017-08-26T09:36:20.425Z,70.58
2017-08-26T09:38:46.815Z,70.41
2017-08-26T09:41:13.246Z,70.96
2017-08-26T09:43:39.662Z,69.64
2017-08-26T09:46:06.071Z,69.33
2017-08-26T09:48:32.470Z,68.90
2017-08-26T09:50:58.920Z,69.81
2017-08-26T09:53:25.342Z,69.85
2017-08-26T09:55:51.790Z,70.03
2017-08-26T09:58:18.212Z,69.54
2017-08-26T10:00:44.662Z,70.62
2017-08-26T10:03:11.054Z,68.77
2017-08-26T10:05:37.453Z,69.53
2017-08-26T10:08:03.850Z,69.44
2017-08-26T10:10:30.237Z,68.11
2017-08-26T10:12:56.614Z,70.36
2017-08-26T10:15:23.017Z,70.16
2017-08-26T10:17:49.502Z,69.75
2017-08-26T10:20:15.873Z,67.71
2017-08-26T10:22:42.268Z,68.40
2017-08-26T10:25:08.683Z,70.34
2017-08-26T10:27:35.058Z,72.05
2017-08-26T10:30:01.576Z,71.36
2017-08-26T10:32:27.994Z,70.04
2017-08-26T10:34:54.440Z,69.33
2017-08-26T10:37:20.889Z,68.35
2017-08-26T10:39:47.316Z,69.82
2017-08-26T10:42:13.730Z,68.27
2017-08-26T10:44:40.172Z,68.47
2017-08-26T10:47:06.664Z,67.97
2017-08-26T10:49:33.105Z,68.68
2017-08-26T10:51:59.558Z,69.64
2017-08-26T10:54:26.020Z,70.29
2017-08-26T10:56:52.460Z,70.08
2017-08-26T10:59:18.852Z,70.45
2017-08-26T11:01:45.256Z,68.44
2017-08-26T11:04:11.660Z,67.68
2017-08-26T11:06:38.078Z,68.82
2017-08-26T11:09:04.549Z,68.06
2017-08-26T11:11:31.005Z,68.25
2017-08-26T11:13:57.406Z,66.76
2017-08-26T11:16:23.858Z,65.37
2017-08-26T11:18:50.277Z,65.10
2017-08-26T11:21:17.011Z,64.90
2017-08-26T11:23:43.503Z,65.52
2017-08-26T11:26:09.901Z,66.79
2017-08-26T11:28:36.324Z,63.84
2017-08-26T11:31:02.674Z,64.50
2017-08-26T11:33:29.056Z,66.52
2017-08-26T11:35:55.468Z,65.08
2017-08-26T11:38:21.864Z,63.77
2017-08-26T11:40:48.244Z,61.03
2017-08-26T11:43:14.652Z,62.95
2017-08-26T11:45:41.077Z,60.40
2017-08-26T11:48:07.478Z,61.45
2017-08-26T11:50:33.865Z,59.74
2017-08-26T11:53:00.256Z,61.74
2017-08-26T11:55:26.664Z,63.18
2017-08-26T11:57:53.134Z,60.46
2017-08-26T12:00:19.557Z,58.97
2017-08-26T12:02:45.999Z,59.14
2017-08-26T12:05:12.405Z,60.28
2017-08-26T12:07:38.894Z,59.23
2017-08-26T12:10:05.316Z,59.24
2017-08-26T12:12:31.929Z,59.20
2017-08-26T12:14:58.333Z,59.69
2017-08-26T12:17:24.848Z,60.12
2017-08-26T12:19:51.294Z,59.60
2017-08-26T12:22:17.774Z,60.23
2017-08-26T12:24:44.165Z,62.46
2017-08-26T12:27:11.378Z,61.86
2017-08-26T12:29:37.944Z,60.78
2017-08-26T12:32:04.416Z,60.45
2017-08-26T12:34:30.823Z,60.02
2017-08-26T12:36:57.242Z,61.01
2017-08-26T12:39:23.637Z,61.12
2017-08-26T12:41:50.125Z,61.14
2017-08-26T12:44:16.509Z,60.57
2017-08-26T12:46:43.343Z,60.46
2017-08-26T12:49:09.790Z,60.88
2017-08-26T12:51:39.301Z,60.60
2017-08-26T13:07:06.007Z,60.74
2017-08-26T13:09:32.781Z,60.76
2017-08-26T13:12:00.313Z,61.39
2017-08-26T13:14:26.824Z,61.25
2017-08-26T13:16:53.451Z,61.38
2017-08-26T13:19:19.838Z,61.28
2017-08-26T13:21:46.273Z,60.81
2017-08-26T13:24:12.684Z,59.62
2017-08-26T13:26:39.060Z,59.43
2017-08-26T13:29:05.623Z,60.29
2017-08-26T13:31:32.075Z,61.18
2017-08-26T13:33:58.497Z,60.42
2017-08-26T13:36:24.899Z,60.29
2017-08-26T13:38:51.341Z,60.01
2017-08-26T13:41:17.703Z,58.91
2017-08-26T13:43:44.062Z,59.09
2017-08-26T13:46:10.530Z,58.57
2017-08-26T13:48:37.083Z,58.91
2017-08-26T13:51:03.604Z,57.88
2017-08-26T13:53:30.029Z,58.04
2017-08-26T13:55:56.553Z,57.63
2017-08-26T13:58:22.992Z,57.31
2017-08-26T14:00:49.564Z,56.62
2017-08-26T14:03:16.088Z,57.25
2017-08-26T14:05:42.640Z,56.78
2017-08-26T14:08:09.051Z,55.92
2017-08-26T14:10:35.462Z,55.52
2017-08-26T14:13:01.934Z,55.42
2017-08-26T14:15:28.413Z,55.98
2017-08-26T14:17:54.833Z,55.97
2017-08-26T14:20:21.554Z,55.11
2017-08-26T14:22:47.976Z,54.91
2017-08-26T14:25:14.415Z,55.41
2017-08-26T14:27:40.803Z,56.20
2017-08-26T14:30:07.593Z,56.20
2017-08-26T14:32:33.989Z,55.53
2017-08-26T14:35:00.371Z,55.45
2017-08-26T14:37:26.747Z,55.46
2017-08-26T14:39:54.350Z,55.22
2017-08-26T14:42:20.751Z,55.89
2017-08-26T14:44:47.135Z,54.92
2017-08-26T14:47:13.837Z,54.94
2017-08-26T14:49:40.210Z,54.56
2017-08-26T14:52:06.598Z,54.48
2017-08-26T14:54:33.007Z,54.05
2017-08-26T14:56:59.507Z,53.94
2017-08-26T14:59:25.919Z,54.33
2017-08-26T15:01:52.396Z,55.66
2017-08-26T15:04:18.885Z,55.12
2017-08-26T15:06:45.265Z,54.57
2017-08-26T15:09:15.537Z,54.22
2017-08-26T15:11:42.564Z,53.81
2017-08-26T15:14:09.108Z,54.78
2017-08-26T15:16:35.524Z,56.07
2017-08-26T15:19:01.928Z,55.52
2017-08-26T15:21:28.332Z,56.09
2017-08-26T15:23:54.771Z,55.75
2017-08-26T15:26:21.214Z,56.19
2017-08-26T15:28:47.615Z,55.66
2017-08-26T15:31:14.020Z,55.59
2017-08-26T15:33:40.461Z,55.92
2017-08-26T15:36:06.908Z,56.53
2017-08-26T15:38:33.298Z,56.30
2017-08-26T15:40:59.693Z,55.89
2017-08-26T15:43:26.126Z,55.74
2017-08-26T15:45:52.563Z,55.47
2017-08-26T15:48:18.960Z,56.54
2017-08-26T15:50:45.407Z,56.60
2017-08-26T15:53:11.820Z,56.80
2017-08-26T15:55:38.334Z,56.78
2017-08-26T15:58:04.817Z,57.13
2017-08-26T16:00:31.232Z,56.16
2017-08-26T16:02:57.636Z,56.12
2017-08-26T16:05:24.056Z,55.81
2017-08-26T16:07:50.430Z,56.61
2017-08-26T16:10:16.820Z,56.45
2017-08-26T16:12:43.515Z,56.18
2017-08-26T16:15:09.895Z,56.17
2017-08-26T16:17:36.292Z,56.35
2017-08-26T16:20:02.693Z,56.62
2017-08-26T16:22:29.141Z,55.42
2017-08-26T16:24:55.586Z,55.71
2017-08-26T16:27:22.014Z,55.95
2017-08-26T16:29:48.469Z,55.95
2017-08-26T16:32:14.831Z,54.77
2017-08-26T16:34:41.199Z,54.46
2017-08-26T16:37:07.596Z,53.79
2017-08-26T16:39:33.988Z,51.99
2017-08-26T16:42:00.355Z,53.71
2017-08-26T16:44:26.715Z,52.11
2017-08-26T16:46:53.096Z,52.95
2017-08-26T16:49:19.468Z,52.42
2017-08-26T16:51:45.879Z,52.82
2017-08-26T16:54:12.257Z,53.08
2017-08-26T16:56:38.705Z,53.15
2017-08-26T16:59:05.147Z,52.37
2017-08-26T17:01:31.541Z,52.98
2017-08-26T17:03:57.967Z,53.22
2017-08-26T17:06:24.485Z,53.24
2017-08-26T17:08:50.886Z,52.52
2017-08-26T17:11:17.383Z,52.73
2017-08-26T17:13:43.850Z,52.92
2017-08-26T17:16:10.379Z,53.24
2017-08-26T17:18:37.002Z,53.21
2017-08-26T17:21:03.452Z,52.97
2017-08-26T17:23:29.859Z,53.23
2017-08-26T17:25:56.431Z,53.76
2017-08-26T17:28:22.804Z,53.97
2017-08-26T17:30:49.204Z,54.51
2017-08-26T17:33:15.608Z,53.97
2017-08-26T17:35:42.120Z,54.62
2017-08-26T17:38:08.503Z,55.15
2017-08-26T17:40:35.982Z,55.52
2017-08-26T17:43:02.491Z,55.28
2017-08-26T17:45:28.900Z,55.81
2017-08-26T17:47:55.372Z,56.56
2017-08-26T17:50:21.751Z,56.88
2017-08-26T17:52:48.111Z,56.76
2017-08-26T17:55:14.533Z,56.91
2017-08-26T17:57:40.915Z,57.14
2017-08-26T18:00:07.262Z,57.34
2017-08-26T18:02:33.655Z,58.35
2017-08-26T18:05:00.019Z,58.96
2017-08-26T18:07:26.415Z,59.05
2017-08-26T18:09:52.838Z,59.94
2017-08-26T18:12:19.197Z,60.47
2017-08-26T18:14:45.547Z,60.07
2017-08-26T18:17:11.933Z,60.25
2017-08-26T18:19:38.319Z,60.26
2017-08-26T18:22:04.712Z,60.21
2017-08-26T18:24:31.142Z,60.17
2017-08-26T18:26:57.530Z,60.57
2017-08-26T18:29:23.910Z,61.13
2017-08-26T18:31:50.336Z,61.22
2017-08-26T18:34:16.780Z,60.79
2017-08-26T18:36:43.149Z,61.20
2017-08-26T18:39:09.529Z,60.89
2017-08-26T18:41:35.926Z,61.48
2017-08-26T18:44:02.365Z,61.19
2017-08-26T18:46:28.980Z,62.08
2017-08-26T18:48:55.354Z,61.51
2017-08-26T18:51:21.764Z,62.38
2017-08-26T18:53:49.047Z,62.04
2017-08-26T18:56:15.420Z,62.47
2017-08-26T18:58:41.815Z,62.94
2017-08-26T19:01:08.197Z,63.12
2017-08-26T19:03:34.600Z,62.22
2017-08-26T19:06:01.030Z,62.52
2017-08-26T19:08:27.459Z,62.41
2017-08-26T19:10:53.954Z,63.16
2017-08-26T19:13:20.402Z,63.07
2017-08-26T19:15:46.765Z,62.97
2017-08-26T19:18:13.149Z,63.39
2017-08-26T19:20:39.537Z,63.19
2017-08-26T19:23:05.971Z,63.30
2017-08-26T19:25:32.420Z,62.99
2017-08-26T19:27:58.794Z,63.72
2017-08-26T19:30:25.246Z,63.32
2017-08-26T19:32:51.670Z,63.37
2017-08-26T19:35:18.052Z,64.04
2017-08-26T19:37:44.434Z,63.68
2017-08-26T19:40:10.820Z,63.57
2017-08-26T19:42:37.223Z,63.69
2017-08-26T19:45:03.607Z,64.25
2017-08-26T19:47:30.090Z,64.25
2017-08-26T19:49:56.545Z,63.53
2017-08-26T19:52:22.918Z,64.18
2017-08-26T19:54:49.349Z,63.90
2017-08-26T19:57:15.730Z,63.52
2017-08-26T19:59:42.164Z,64.00
2017-08-26T20:02:08.597Z,63.97
2017-08-26T20:04:34.992Z,64.02
2017-08-26T20:07:01.375Z,64.41
2017-08-26T20:09:27.754Z,64.30
2017-08-26T20:11:54.163Z,64.42
2017-08-26T20:14:20.518Z,64.40
2017-08-26T20:16:46.931Z,64.70
2017-08-26T20:19:13.278Z,64.91
2017-08-26T20:21:39.766Z,64.55
2017-08-26T20:24:06.143Z,64.96
2017-08-26T20:26:32.494Z,64.68
2017-08-26T20:28:58.890Z,64.17
2017-08-26T20:31:25.291Z,64.37
2017-08-26T20:33:51.710Z,64.41
2017-08-26T20:36:18.151Z,64.18
2017-08-26T20:38:44.583Z,64.90
2017-08-26T20:41:10.974Z,64.70
2017-08-26T20:43:37.337Z,64.50
2017-08-26T20:46:03.734Z,64.62
2017-08-26T20:48:30.184Z,64.41
2017-08-26T20:50:56.580Z,64.35
2017-08-26T20:53:23.042Z,64.78
2017-08-26T20:55:49.471Z,64.55
2017-08-26T20:58:15.984Z,64.42
2017-08-26T21:00:42.429Z,64.88
2017-08-26T21:03:08.828Z,65.32
2017-08-26T21:05:35.219Z,65.53
2017-08-26T21:08:01.638Z,65.21
2017-08-26T21:10:28.054Z,64.80
2017-08-26T21:12:54.464Z,64.57
2017-08-26T21:15:20.861Z,64.68
2017-08-26T21:17:47.247Z,64.71
2017-08-26T21:20:13.625Z,65.28
2017-08-26T21:22:40.014Z,65.20
2017-08-26T21:25:06.378Z,64.83
2017-08-26T21:27:32.742Z,65.12
2017-08-26T21:29:59.156Z,65.16
2017-08-26T21:32:25.561Z,64.98
2017-08-26T21:34:51.932Z,64.95
2017-08-26T21:37:18.290Z,64.99
2017-08-26T21:39:44.673Z,65.19
2017-08-26T21:42:11.090Z,65.40
2017-08-26T21:44:37.450Z,64.88
2017-08-26T21:47:03.808Z,64.71
2017-08-26T21:49:30.411Z,65.93
2017-08-26T21:51:56.875Z,66.16
2017-08-26T21:54:23.268Z,65.52
2017-08-26T21:56:49.662Z,65.14
2017-08-26T21:59:16.022Z,66.40
2017-08-26T22:01:42.384Z,67.23
2017-08-26T22:04:08.751Z,66.95
2017-08-26T22:06:35.208Z,67.67
2017-08-26T22:09:01.621Z,66.40
2017-08-26T22:11:28.021Z,66.59
2017-08-26T22:13:54.400Z,65.94
2017-08-26T22:16:20.779Z,66.06
2017-08-26T22:18:47.156Z,66.16
2017-08-26T22:21:13.610Z,66.81
2017-08-26T22:23:40.005Z,66.31
2017-08-26T22:26:06.380Z,66.03
2017-08-26T22:28:32.750Z,66.26
2017-08-26T22:30:59.133Z,65.71
2017-08-26T22:33:25.555Z,65.37
2017-08-26T22:35:51.907Z,66.21
2017-08-26T22:38:18.270Z,66.14
2017-08-26T22:40:44.654Z,66.01
2017-08-26T22:43:11.014Z,66.35
2017-08-26T22:45:40.671Z,66.96
2017-08-26T22:48:10.196Z,67.37
2017-08-26T22:50:39.849Z,66.50
2017-08-26T22:53:09.287Z,67.38
2017-08-26T22:55:39.176Z,66.56
2017-08-26T22:58:07.861Z,67.87
2017-08-26T23:00:34.465Z,66.63
2017-08-26T23:03:00.830Z,67.92
2017-08-26T23:05:27.182Z,67.20
2017-08-26T23:07:53.560Z,67.24
2017-08-26T23:10:19.946Z,66.83
2017-08-26T23:12:51.223Z,66.52
2017-08-26T23:15:19.284Z,66.38
2017-08-26T23:17:45.692Z,66.20
2017-08-26T23:20:14.749Z,66.16
2017-08-26T23:22:42.669Z,66.61
2017-08-26T23:25:10.053Z,66.70
2017-08-26T23:27:36.427Z,66.93
2017-08-26T23:30:03.355Z,66.59
2017-08-26T23:32:29.742Z,66.50
2017-08-26T23:34:56.289Z,66.74
2017-08-26T23:37:22.653Z,67.28
2017-08-26T23:39:49.076Z,67.17
2017-08-26T23:42:15.455Z,66.98
2017-08-26T23:44:41.826Z,67.19
2017-08-26T23:47:08.246Z,66.98
2017-08-26T23:49:34.695Z,66.68
2017-08-26T23:52:01.060Z,67.41
2017-08-26T23:54:27.406Z,67.46
2017-08-26T23:56:53.779Z,67.27
2017-08-26T23:59:20.495Z,67.04
